sensor_id;sensor_type;location;lat;lon;timestamp;P1;durP1;ratioP1;P2;durP2;ratioP2
29314;SDS011;16320;53.954;9.506;2024-01-30T00:00:58;23.65;;;15.25;;
29314;SDS011;16320;53.954;9.506;2024-01-30T00:03:26;26.88;;;16.25;;
29314;SDS011;16320;53.954;9.506;2024-01-30T00:05:55;25.92;;;15.25;;
29314;SDS011;16320;53.954;9.506;2024-01-30T00:08:25;30.15;;;16.63;;
29314;SDS011;16320;53.954;9.506;2024-01-30T00:10:54;26.50;;;16.30;;
29314;SDS011;16320;53.954;9.506;2024-01-30T00:13:23;32.95;;;16.70;;
29314;SDS011;16320;53.954;9.506;2024-01-30T00:15:51;26.38;;;16.73;;
29314;SDS011;16320;53.954;9.506;2024-01-30T00:18:20;26.50;;;16.92;;
29314;SDS011;16320;53.954;9.506;2024-01-30T00:20:48;32.42;;;17.73;;
29314;SDS011;16320;53.954;9.506;2024-01-30T00:23:16;32.75;;;17.70;;
29314;SDS011;16320;53.954;9.506;2024-01-30T00:25:46;34.30;;;18.42;;
29314;SDS011;16320;53.954;9.506;2024-01-30T00:28:14;31.98;;;18.02;;
29314;SDS011;16320;53.954;9.506;2024-01-30T00:30:42;35.58;;;19.38;;
29314;SDS011;16320;53.954;9.506;2024-01-30T00:33:11;35.05;;;19.52;;
29314;SDS011;16320;53.954;9.506;2024-01-30T00:35:39;36.13;;;18.40;;
29314;SDS011;16320;53.954;9.506;2024-01-30T00:38:07;30.13;;;18.73;;
29314;SDS011;16320;53.954;9.506;2024-01-30T00:40:35;34.53;;;19.10;;
29314;SDS011;16320;53.954;9.506;2024-01-30T00:43:03;30.20;;;19.08;;
29314;SDS011;16320;53.954;9.506;2024-01-30T00:45:33;34.35;;;19.80;;
29314;SDS011;16320;53.954;9.506;2024-01-30T00:48:01;34.13;;;19.63;;
29314;SDS011;16320;53.954;9.506;2024-01-30T00:50:31;31.15;;;18.52;;
29314;SDS011;16320;53.954;9.506;2024-01-30T00:52:59;28.88;;;18.45;;
29314;SDS011;16320;53.954;9.506;2024-01-30T00:55:27;33.13;;;19.15;;
29314;SDS011;16320;53.954;9.506;2024-01-30T00:57:56;29.73;;;18.08;;
29314;SDS011;16320;53.954;9.506;2024-01-30T01:00:24;30.48;;;17.65;;
29314;SDS011;16320;53.954;9.506;2024-01-30T01:02:55;31.98;;;18.40;;
29314;SDS011;16320;53.954;9.506;2024-01-30T01:05:23;28.17;;;17.25;;
29314;SDS011;16320;53.954;9.506;2024-01-30T01:07:52;29.02;;;17.48;;
29314;SDS011;16320;53.954;9.506;2024-01-30T01:10:20;27.00;;;16.48;;
29314;SDS011;16320;53.954;9.506;2024-01-30T01:12:49;31.42;;;17.85;;
29314;SDS011;16320;53.954;9.506;2024-01-30T01:15:17;29.40;;;17.98;;
29314;SDS011;16320;53.954;9.506;2024-01-30T01:17:45;31.85;;;17.65;;
29314;SDS011;16320;53.954;9.506;2024-01-30T01:20:13;28.35;;;16.50;;
29314;SDS011;16320;53.954;9.506;2024-01-30T01:22:42;25.65;;;17.25;;
29314;SDS011;16320;53.954;9.506;2024-01-30T01:25:10;25.75;;;17.10;;
29314;SDS011;16320;53.954;9.506;2024-01-30T01:27:38;29.38;;;17.83;;
29314;SDS011;16320;53.954;9.506;2024-01-30T01:30:10;32.78;;;18.63;;
29314;SDS011;16320;53.954;9.506;2024-01-30T01:32:45;33.35;;;18.88;;
29314;SDS011;16320;53.954;9.506;2024-01-30T01:35:17;29.05;;;18.67;;
29314;SDS011;16320;53.954;9.506;2024-01-30T01:37:45;31.52;;;17.83;;
29314;SDS011;16320;53.954;9.506;2024-01-30T01:40:13;28.50;;;17.35;;
29314;SDS011;16320;53.954;9.506;2024-01-30T01:42:42;29.77;;;17.65;;
29314;SDS011;16320;53.954;9.506;2024-01-30T01:45:10;27.00;;;17.05;;
29314;SDS011;16320;53.954;9.506;2024-01-30T01:47:38;28.90;;;18.60;;
29314;SDS011;16320;53.954;9.506;2024-01-30T01:50:07;27.25;;;18.13;;
29314;SDS011;16320;53.954;9.506;2024-01-30T01:52:35;27.50;;;18.00;;
29314;SDS011;16320;53.954;9.506;2024-01-30T01:55:04;29.08;;;18.15;;
29314;SDS011;16320;53.954;9.506;2024-01-30T01:57:33;29.30;;;18.27;;
29314;SDS011;16320;53.954;9.506;2024-01-30T02:00:01;28.30;;;18.58;;
29314;SDS011;16320;53.954;9.506;2024-01-30T02:02:31;30.95;;;18.40;;
29314;SDS011;16320;53.954;9.506;2024-01-30T02:07:32;27.45;;;18.13;;
29314;SDS011;16320;53.954;9.506;2024-01-30T02:10:01;27.65;;;17.15;;
29314;SDS011;16320;53.954;9.506;2024-01-30T02:12:30;27.42;;;18.13;;
29314;SDS011;16320;53.954;9.506;2024-01-30T02:14:58;33.78;;;19.20;;
29314;SDS011;16320;53.954;9.506;2024-01-30T02:17:26;30.67;;;20.02;;
29314;SDS011;16320;53.954;9.506;2024-01-30T02:19:54;29.98;;;18.90;;
29314;SDS011;16320;53.954;9.506;2024-01-30T02:22:22;27.90;;;18.15;;
29314;SDS011;16320;53.954;9.506;2024-01-30T02:24:53;30.75;;;19.67;;
29314;SDS011;16320;53.954;9.506;2024-01-30T02:27:21;30.48;;;19.58;;
29314;SDS011;16320;53.954;9.506;2024-01-30T02:29:49;32.75;;;19.00;;
29314;SDS011;16320;53.954;9.506;2024-01-30T02:32:17;28.90;;;19.17;;
29314;SDS011;16320;53.954;9.506;2024-01-30T02:34:46;27.73;;;17.50;;
29314;SDS011;16320;53.954;9.506;2024-01-30T02:37:14;27.75;;;18.10;;
29314;SDS011;16320;53.954;9.506;2024-01-30T02:39:42;32.35;;;19.40;;
29314;SDS011;16320;53.954;9.506;2024-01-30T02:42:11;28.77;;;18.75;;
29314;SDS011;16320;53.954;9.506;2024-01-30T02:44:38;30.25;;;19.15;;
29314;SDS011;16320;53.954;9.506;2024-01-30T02:47:06;29.08;;;17.98;;
29314;SDS011;16320;53.954;9.506;2024-01-30T02:49:34;26.30;;;17.95;;
29314;SDS011;16320;53.954;9.506;2024-01-30T02:52:03;29.40;;;18.58;;
29314;SDS011;16320;53.954;9.506;2024-01-30T02:54:31;32.03;;;19.17;;
29314;SDS011;16320;53.954;9.506;2024-01-30T02:56:59;32.65;;;19.35;;
29314;SDS011;16320;53.954;9.506;2024-01-30T02:59:28;29.52;;;17.42;;
29314;SDS011;16320;53.954;9.506;2024-01-30T03:01:59;31.55;;;19.58;;
29314;SDS011;16320;53.954;9.506;2024-01-30T03:04:27;28.77;;;18.33;;
29314;SDS011;16320;53.954;9.506;2024-01-30T03:06:56;25.17;;;16.63;;
29314;SDS011;16320;53.954;9.506;2024-01-30T03:09:24;31.70;;;17.65;;
29314;SDS011;16320;53.954;9.506;2024-01-30T03:11:52;28.42;;;18.55;;
29314;SDS011;16320;53.954;9.506;2024-01-30T03:14:20;31.48;;;18.33;;
29314;SDS011;16320;53.954;9.506;2024-01-30T03:16:48;28.05;;;18.33;;
29314;SDS011;16320;53.954;9.506;2024-01-30T03:19:16;25.50;;;17.45;;
29314;SDS011;16320;53.954;9.506;2024-01-30T03:21:45;25.17;;;16.67;;
29314;SDS011;16320;53.954;9.506;2024-01-30T03:24:13;25.45;;;16.23;;
29314;SDS011;16320;53.954;9.506;2024-01-30T03:26:41;24.45;;;15.57;;
29314;SDS011;16320;53.954;9.506;2024-01-30T03:29:09;28.05;;;16.27;;
29314;SDS011;16320;53.954;9.506;2024-01-30T03:31:38;22.35;;;15.13;;
29314;SDS011;16320;53.954;9.506;2024-01-30T03:34:09;23.70;;;15.07;;
29314;SDS011;16320;53.954;9.506;2024-01-30T03:36:37;25.50;;;15.30;;
29314;SDS011;16320;53.954;9.506;2024-01-30T03:39:06;24.02;;;15.77;;
29314;SDS011;16320;53.954;9.506;2024-01-30T03:41:34;21.63;;;14.05;;
29314;SDS011;16320;53.954;9.506;2024-01-30T03:44:02;25.00;;;13.70;;
29314;SDS011;16320;53.954;9.506;2024-01-30T03:46:31;23.80;;;13.55;;
29314;SDS011;16320;53.954;9.506;2024-01-30T03:48:59;21.38;;;13.40;;
29314;SDS011;16320;53.954;9.506;2024-01-30T03:51:27;21.83;;;13.85;;
29314;SDS011;16320;53.954;9.506;2024-01-30T03:53:55;22.38;;;13.98;;
29314;SDS011;16320;53.954;9.506;2024-01-30T03:56:23;25.00;;;14.13;;
29314;SDS011;16320;53.954;9.506;2024-01-30T03:58:52;20.23;;;13.50;;
29314;SDS011;16320;53.954;9.506;2024-01-30T04:01:20;21.73;;;13.60;;
29314;SDS011;16320;53.954;9.506;2024-01-30T04:03:48;21.23;;;12.90;;
29314;SDS011;16320;53.954;9.506;2024-01-30T04:06:16;19.75;;;13.57;;
29314;SDS011;16320;53.954;9.506;2024-01-30T04:08:44;33.40;;;13.70;;
29314;SDS011;16320;53.954;9.506;2024-01-30T04:11:13;18.10;;;12.45;;
29314;SDS011;16320;53.954;9.506;2024-01-30T04:13:43;29.38;;;13.07;;
29314;SDS011;16320;53.954;9.506;2024-01-30T04:16:19;20.52;;;12.90;;
29314;SDS011;16320;53.954;9.506;2024-01-30T04:18:49;18.92;;;12.70;;
29314;SDS011;16320;53.954;9.506;2024-01-30T04:21:20;21.75;;;12.43;;
29314;SDS011;16320;53.954;9.506;2024-01-30T04:23:50;22.45;;;13.50;;
29314;SDS011;16320;53.954;9.506;2024-01-30T04:26:19;18.13;;;12.50;;
29314;SDS011;16320;53.954;9.506;2024-01-30T04:28:47;19.55;;;12.85;;
29314;SDS011;16320;53.954;9.506;2024-01-30T04:31:15;17.60;;;12.75;;
29314;SDS011;16320;53.954;9.506;2024-01-30T04:33:43;22.20;;;13.68;;
29314;SDS011;16320;53.954;9.506;2024-01-30T04:36:11;20.20;;;12.88;;
29314;SDS011;16320;53.954;9.506;2024-01-30T04:38:39;24.55;;;14.18;;
29314;SDS011;16320;53.954;9.506;2024-01-30T04:41:07;20.27;;;13.45;;
29314;SDS011;16320;53.954;9.506;2024-01-30T04:43:35;20.65;;;13.63;;
29314;SDS011;16320;53.954;9.506;2024-01-30T04:46:04;19.70;;;13.02;;
29314;SDS011;16320;53.954;9.506;2024-01-30T04:48:33;23.15;;;12.90;;
29314;SDS011;16320;53.954;9.506;2024-01-30T04:51:01;20.77;;;12.48;;
29314;SDS011;16320;53.954;9.506;2024-01-30T04:53:30;22.30;;;13.60;;
29314;SDS011;16320;53.954;9.506;2024-01-30T04:55:58;22.50;;;12.73;;
29314;SDS011;16320;53.954;9.506;2024-01-30T04:58:27;22.23;;;14.38;;
29314;SDS011;16320;53.954;9.506;2024-01-30T05:00:55;20.77;;;13.35;;
29314;SDS011;16320;53.954;9.506;2024-01-30T05:03:24;19.83;;;12.57;;
29314;SDS011;16320;53.954;9.506;2024-01-30T05:05:52;20.85;;;13.52;;
29314;SDS011;16320;53.954;9.506;2024-01-30T05:08:20;21.15;;;13.65;;
29314;SDS011;16320;53.954;9.506;2024-01-30T05:10:50;20.17;;;13.70;;
29314;SDS011;16320;53.954;9.506;2024-01-30T05:13:18;18.88;;;13.35;;
29314;SDS011;16320;53.954;9.506;2024-01-30T05:15:46;24.88;;;13.57;;
29314;SDS011;16320;53.954;9.506;2024-01-30T05:18:14;20.48;;;13.23;;
29314;SDS011;16320;53.954;9.506;2024-01-30T05:20:42;22.83;;;14.45;;
29314;SDS011;16320;53.954;9.506;2024-01-30T05:23:09;22.55;;;14.45;;
29314;SDS011;16320;53.954;9.506;2024-01-30T05:25:37;19.30;;;13.70;;
29314;SDS011;16320;53.954;9.506;2024-01-30T05:28:05;23.80;;;14.55;;
29314;SDS011;16320;53.954;9.506;2024-01-30T05:30:34;24.70;;;13.27;;
29314;SDS011;16320;53.954;9.506;2024-01-30T05:33:02;20.73;;;13.23;;
29314;SDS011;16320;53.954;9.506;2024-01-30T05:35:30;20.58;;;13.85;;
29314;SDS011;16320;53.954;9.506;2024-01-30T05:37:58;21.88;;;14.38;;
29314;SDS011;16320;53.954;9.506;2024-01-30T05:40:26;26.55;;;13.75;;
29314;SDS011;16320;53.954;9.506;2024-01-30T05:42:54;22.58;;;14.00;;
29314;SDS011;16320;53.954;9.506;2024-01-30T05:45:22;19.30;;;12.98;;
29314;SDS011;16320;53.954;9.506;2024-01-30T05:47:50;18.65;;;13.30;;
29314;SDS011;16320;53.954;9.506;2024-01-30T05:50:18;21.17;;;14.32;;
29314;SDS011;16320;53.954;9.506;2024-01-30T05:52:49;20.40;;;13.60;;
29314;SDS011;16320;53.954;9.506;2024-01-30T05:55:18;23.20;;;14.65;;
29314;SDS011;16320;53.954;9.506;2024-01-30T05:57:46;21.27;;;14.73;;
29314;SDS011;16320;53.954;9.506;2024-01-30T06:00:14;25.88;;;14.90;;
29314;SDS011;16320;53.954;9.506;2024-01-30T06:02:43;24.40;;;15.55;;
29314;SDS011;16320;53.954;9.506;2024-01-30T06:05:11;23.90;;;15.55;;
29314;SDS011;16320;53.954;9.506;2024-01-30T06:07:39;26.13;;;15.05;;
29314;SDS011;16320;53.954;9.506;2024-01-30T06:10:07;22.55;;;14.85;;
29314;SDS011;16320;53.954;9.506;2024-01-30T06:12:37;26.77;;;16.23;;
29314;SDS011;16320;53.954;9.506;2024-01-30T06:15:05;21.35;;;15.35;;
29314;SDS011;16320;53.954;9.506;2024-01-30T06:17:34;25.73;;;16.30;;
29314;SDS011;16320;53.954;9.506;2024-01-30T06:20:02;22.52;;;15.10;;
29314;SDS011;16320;53.954;9.506;2024-01-30T06:22:31;26.23;;;14.38;;
29314;SDS011;16320;53.954;9.506;2024-01-30T06:24:59;30.15;;;15.32;;
29314;SDS011;16320;53.954;9.506;2024-01-30T06:27:27;23.60;;;15.60;;
29314;SDS011;16320;53.954;9.506;2024-01-30T06:29:55;22.90;;;14.75;;
29314;SDS011;16320;53.954;9.506;2024-01-30T06:32:23;26.25;;;16.85;;
29314;SDS011;16320;53.954;9.506;2024-01-30T06:34:52;20.83;;;14.50;;
29314;SDS011;16320;53.954;9.506;2024-01-30T06:37:20;25.77;;;15.07;;
29314;SDS011;16320;53.954;9.506;2024-01-30T06:39:48;24.80;;;14.98;;
29314;SDS011;16320;53.954;9.506;2024-01-30T06:42:16;23.08;;;14.38;;
29314;SDS011;16320;53.954;9.506;2024-01-30T06:44:44;24.25;;;14.95;;
29314;SDS011;16320;53.954;9.506;2024-01-30T06:47:12;23.05;;;15.75;;
29314;SDS011;16320;53.954;9.506;2024-01-30T06:49:40;24.08;;;14.88;;
29314;SDS011;16320;53.954;9.506;2024-01-30T06:52:10;21.40;;;15.07;;
29314;SDS011;16320;53.954;9.506;2024-01-30T06:54:38;27.20;;;16.02;;
29314;SDS011;16320;53.954;9.506;2024-01-30T06:57:09;24.38;;;16.05;;
29314;SDS011;16320;53.954;9.506;2024-01-30T06:59:38;23.70;;;16.10;;
29314;SDS011;16320;53.954;9.506;2024-01-30T07:02:09;26.45;;;16.25;;
29314;SDS011;16320;53.954;9.506;2024-01-30T07:04:38;26.00;;;15.23;;
29314;SDS011;16320;53.954;9.506;2024-01-30T07:07:12;23.67;;;14.65;;
29314;SDS011;16320;53.954;9.506;2024-01-30T07:09:42;25.85;;;14.90;;
29314;SDS011;16320;53.954;9.506;2024-01-30T07:12:10;26.08;;;15.75;;
29314;SDS011;16320;53.954;9.506;2024-01-30T07:14:38;22.30;;;15.55;;
29314;SDS011;16320;53.954;9.506;2024-01-30T07:17:06;29.17;;;16.60;;
29314;SDS011;16320;53.954;9.506;2024-01-30T07:19:34;22.42;;;15.45;;
29314;SDS011;16320;53.954;9.506;2024-01-30T07:22:02;24.58;;;15.77;;
29314;SDS011;16320;53.954;9.506;2024-01-30T07:24:31;27.90;;;15.98;;
29314;SDS011;16320;53.954;9.506;2024-01-30T07:26:59;24.00;;;15.65;;
29314;SDS011;16320;53.954;9.506;2024-01-30T07:29:27;23.00;;;16.23;;
29314;SDS011;16320;53.954;9.506;2024-01-30T07:31:55;25.50;;;16.73;;
29314;SDS011;16320;53.954;9.506;2024-01-30T07:34:23;23.92;;;15.73;;
29314;SDS011;16320;53.954;9.506;2024-01-30T07:36:53;21.88;;;15.02;;
29314;SDS011;16320;53.954;9.506;2024-01-30T07:39:21;28.17;;;16.52;;
29314;SDS011;16320;53.954;9.506;2024-01-30T07:41:49;23.45;;;16.05;;
29314;SDS011;16320;53.954;9.506;2024-01-30T07:44:20;23.45;;;15.30;;
29314;SDS011;16320;53.954;9.506;2024-01-30T07:46:48;27.73;;;16.40;;
29314;SDS011;16320;53.954;9.506;2024-01-30T07:49:16;23.42;;;15.05;;
29314;SDS011;16320;53.954;9.506;2024-01-30T07:51:44;26.20;;;15.20;;
29314;SDS011;16320;53.954;9.506;2024-01-30T07:54:16;28.40;;;15.27;;
29314;SDS011;16320;53.954;9.506;2024-01-30T08:03:54;23.73;;;15.18;;
29314;SDS011;16320;53.954;9.506;2024-01-30T08:06:23;23.00;;;15.10;;
29314;SDS011;16320;53.954;9.506;2024-01-30T08:08:51;20.17;;;14.93;;
29314;SDS011;16320;53.954;9.506;2024-01-30T08:11:22;23.70;;;14.73;;
29314;SDS011;16320;53.954;9.506;2024-01-30T08:13:53;23.73;;;15.20;;
29314;SDS011;16320;53.954;9.506;2024-01-30T08:16:21;26.30;;;14.60;;
29314;SDS011;16320;53.954;9.506;2024-01-30T08:18:49;22.77;;;14.93;;
29314;SDS011;16320;53.954;9.506;2024-01-30T08:21:17;26.50;;;15.13;;
29314;SDS011;16320;53.954;9.506;2024-01-30T08:23:45;26.00;;;16.27;;
29314;SDS011;16320;53.954;9.506;2024-01-30T08:26:13;23.98;;;15.52;;
29314;SDS011;16320;53.954;9.506;2024-01-30T08:28:41;22.42;;;14.30;;
29314;SDS011;16320;53.954;9.506;2024-01-30T08:31:12;24.98;;;13.45;;
29314;SDS011;16320;53.954;9.506;2024-01-30T08:33:40;23.63;;;14.57;;
29314;SDS011;16320;53.954;9.506;2024-01-30T08:36:10;20.92;;;15.05;;
29314;SDS011;16320;53.954;9.506;2024-01-30T08:38:38;22.38;;;14.27;;
29314;SDS011;16320;53.954;9.506;2024-01-30T08:41:07;22.83;;;15.10;;
29314;SDS011;16320;53.954;9.506;2024-01-30T08:43:35;26.52;;;15.27;;
29314;SDS011;16320;53.954;9.506;2024-01-30T08:46:03;25.25;;;14.57;;
29314;SDS011;16320;53.954;9.506;2024-01-30T08:48:32;23.70;;;14.63;;
29314;SDS011;16320;53.954;9.506;2024-01-30T08:51:00;26.88;;;15.20;;
29314;SDS011;16320;53.954;9.506;2024-01-30T08:53:28;21.75;;;14.50;;
29314;SDS011;16320;53.954;9.506;2024-01-30T08:55:56;22.40;;;14.60;;
29314;SDS011;16320;53.954;9.506;2024-01-30T08:58:25;24.27;;;14.85;;
29314;SDS011;16320;53.954;9.506;2024-01-30T09:00:53;21.85;;;13.90;;
29314;SDS011;16320;53.954;9.506;2024-01-30T09:03:21;20.88;;;15.18;;
29314;SDS011;16320;53.954;9.506;2024-01-30T09:05:49;21.95;;;13.18;;
29314;SDS011;16320;53.954;9.506;2024-01-30T09:08:17;22.92;;;14.50;;
29314;SDS011;16320;53.954;9.506;2024-01-30T09:10:45;22.67;;;13.80;;
29314;SDS011;16320;53.954;9.506;2024-01-30T09:13:14;24.85;;;14.02;;
29314;SDS011;16320;53.954;9.506;2024-01-30T09:15:42;23.15;;;14.45;;
29314;SDS011;16320;53.954;9.506;2024-01-30T09:18:10;19.70;;;13.85;;
29314;SDS011;16320;53.954;9.506;2024-01-30T09:20:38;20.77;;;13.98;;
29314;SDS011;16320;53.954;9.506;2024-01-30T09:23:06;21.50;;;14.30;;
29314;SDS011;16320;53.954;9.506;2024-01-30T09:25:35;23.02;;;13.77;;
29314;SDS011;16320;53.954;9.506;2024-01-30T09:28:04;26.98;;;13.77;;
29314;SDS011;16320;53.954;9.506;2024-01-30T09:30:33;22.58;;;13.70;;
29314;SDS011;16320;53.954;9.506;2024-01-30T09:33:01;22.77;;;13.52;;
29314;SDS011;16320;53.954;9.506;2024-01-30T09:35:29;28.50;;;13.73;;
29314;SDS011;16320;53.954;9.506;2024-01-30T09:37:58;21.80;;;13.60;;
29314;SDS011;16320;53.954;9.506;2024-01-30T09:40:25;22.92;;;13.50;;
29314;SDS011;16320;53.954;9.506;2024-01-30T09:42:54;21.70;;;13.90;;
29314;SDS011;16320;53.954;9.506;2024-01-30T09:45:23;22.02;;;13.25;;
29314;SDS011;16320;53.954;9.506;2024-01-30T09:47:53;23.85;;;13.43;;
29314;SDS011;16320;53.954;9.506;2024-01-30T09:50:21;19.67;;;13.00;;
29314;SDS011;16320;53.954;9.506;2024-01-30T09:52:49;21.00;;;13.18;;
29314;SDS011;16320;53.954;9.506;2024-01-30T09:55:18;20.17;;;13.48;;
29314;SDS011;16320;53.954;9.506;2024-01-30T09:57:47;20.42;;;13.20;;
29314;SDS011;16320;53.954;9.506;2024-01-30T10:00:15;21.35;;;13.07;;
29314;SDS011;16320;53.954;9.506;2024-01-30T10:02:44;22.83;;;13.88;;
29314;SDS011;16320;53.954;9.506;2024-01-30T10:05:13;18.33;;;13.23;;
29314;SDS011;16320;53.954;9.506;2024-01-30T10:07:54;24.42;;;13.40;;
29314;SDS011;16320;53.954;9.506;2024-01-30T10:10:25;19.70;;;14.00;;
29314;SDS011;16320;53.954;9.506;2024-01-30T10:12:53;23.77;;;13.10;;
29314;SDS011;16320;53.954;9.506;2024-01-30T10:15:22;21.70;;;13.40;;
29314;SDS011;16320;53.954;9.506;2024-01-30T10:17:50;19.08;;;13.63;;
29314;SDS011;16320;53.954;9.506;2024-01-30T10:20:18;19.00;;;13.18;;
29314;SDS011;16320;53.954;9.506;2024-01-30T10:22:49;21.92;;;12.85;;
29314;SDS011;16320;53.954;9.506;2024-01-30T10:25:17;20.42;;;14.10;;
29314;SDS011;16320;53.954;9.506;2024-01-30T10:27:46;24.13;;;13.80;;
29314;SDS011;16320;53.954;9.506;2024-01-30T10:30:14;21.13;;;13.63;;
29314;SDS011;16320;53.954;9.506;2024-01-30T10:32:43;19.15;;;13.32;;
29314;SDS011;16320;53.954;9.506;2024-01-30T10:35:11;21.27;;;13.45;;
29314;SDS011;16320;53.954;9.506;2024-01-30T10:37:39;21.38;;;13.88;;
29314;SDS011;16320;53.954;9.506;2024-01-30T10:40:12;19.98;;;13.02;;
29314;SDS011;16320;53.954;9.506;2024-01-30T10:42:43;21.40;;;12.93;;
29314;SDS011;16320;53.954;9.506;2024-01-30T10:45:13;21.58;;;13.88;;
29314;SDS011;16320;53.954;9.506;2024-01-30T10:47:48;21.58;;;13.15;;
29314;SDS011;16320;53.954;9.506;2024-01-30T10:50:17;20.48;;;13.02;;
29314;SDS011;16320;53.954;9.506;2024-01-30T10:52:46;20.70;;;13.02;;
29314;SDS011;16320;53.954;9.506;2024-01-30T10:55:15;32.10;;;14.05;;
29314;SDS011;16320;53.954;9.506;2024-01-30T10:57:45;20.52;;;13.02;;
29314;SDS011;16320;53.954;9.506;2024-01-30T11:00:14;22.88;;;14.00;;
29314;SDS011;16320;53.954;9.506;2024-01-30T11:02:43;19.05;;;13.35;;
29314;SDS011;16320;53.954;9.506;2024-01-30T11:05:13;20.75;;;13.30;;
29314;SDS011;16320;53.954;9.506;2024-01-30T11:07:42;19.02;;;12.77;;
29314;SDS011;16320;53.954;9.506;2024-01-30T11:10:11;19.52;;;14.05;;
29314;SDS011;16320;53.954;9.506;2024-01-30T11:12:42;22.08;;;14.02;;
29314;SDS011;16320;53.954;9.506;2024-01-30T11:15:14;22.08;;;13.90;;
29314;SDS011;16320;53.954;9.506;2024-01-30T11:20:20;20.00;;;13.00;;
29314;SDS011;16320;53.954;9.506;2024-01-30T11:22:50;22.67;;;13.48;;
29314;SDS011;16320;53.954;9.506;2024-01-30T11:25:24;21.02;;;12.70;;
29314;SDS011;16320;53.954;9.506;2024-01-30T11:27:53;20.30;;;13.43;;
29314;SDS011;16320;53.954;9.506;2024-01-30T11:30:30;21.30;;;13.32;;
29314;SDS011;16320;53.954;9.506;2024-01-30T11:35:35;21.65;;;12.70;;
29314;SDS011;16320;53.954;9.506;2024-01-30T11:38:07;20.13;;;13.23;;
29314;SDS011;16320;53.954;9.506;2024-01-30T11:40:37;23.00;;;13.50;;
29314;SDS011;16320;53.954;9.506;2024-01-30T11:43:07;20.15;;;12.88;;
29314;SDS011;16320;53.954;9.506;2024-01-30T11:45:36;22.13;;;13.85;;
29314;SDS011;16320;53.954;9.506;2024-01-30T11:48:05;16.25;;;12.45;;
29314;SDS011;16320;53.954;9.506;2024-01-30T11:50:37;19.75;;;13.10;;
29314;SDS011;16320;53.954;9.506;2024-01-30T11:53:06;21.55;;;13.27;;
29314;SDS011;16320;53.954;9.506;2024-01-30T11:55:35;20.90;;;12.85;;
29314;SDS011;16320;53.954;9.506;2024-01-30T11:58:04;19.08;;;12.15;;
29314;SDS011;16320;53.954;9.506;2024-01-30T12:00:32;20.27;;;13.38;;
29314;SDS011;16320;53.954;9.506;2024-01-30T12:03:01;23.63;;;13.20;;
29314;SDS011;16320;53.954;9.506;2024-01-30T12:05:32;20.95;;;13.05;;
29314;SDS011;16320;53.954;9.506;2024-01-30T12:08:00;19.38;;;13.15;;
29314;SDS011;16320;53.954;9.506;2024-01-30T12:10:29;21.38;;;14.02;;
29314;SDS011;16320;53.954;9.506;2024-01-30T12:12:58;19.70;;;12.82;;
29314;SDS011;16320;53.954;9.506;2024-01-30T12:15:26;19.20;;;13.45;;
29314;SDS011;16320;53.954;9.506;2024-01-30T12:18:03;19.30;;;12.93;;
29314;SDS011;16320;53.954;9.506;2024-01-30T12:20:34;19.20;;;12.73;;
29314;SDS011;16320;53.954;9.506;2024-01-30T12:23:03;21.90;;;13.88;;
29314;SDS011;16320;53.954;9.506;2024-01-30T12:25:31;22.92;;;13.48;;
29314;SDS011;16320;53.954;9.506;2024-01-30T12:28:00;25.58;;;14.45;;
29314;SDS011;16320;53.954;9.506;2024-01-30T12:30:29;18.75;;;12.60;;
29314;SDS011;16320;53.954;9.506;2024-01-30T12:32:57;20.42;;;12.38;;
29314;SDS011;16320;53.954;9.506;2024-01-30T12:35:25;25.92;;;13.68;;
29314;SDS011;16320;53.954;9.506;2024-01-30T12:37:58;19.65;;;12.88;;
29314;SDS011;16320;53.954;9.506;2024-01-30T12:40:26;22.63;;;14.10;;
29314;SDS011;16320;53.954;9.506;2024-01-30T12:42:55;25.00;;;13.75;;
29314;SDS011;16320;53.954;9.506;2024-01-30T12:45:25;21.90;;;13.20;;
29314;SDS011;16320;53.954;9.506;2024-01-30T12:47:53;20.75;;;13.15;;
29314;SDS011;16320;53.954;9.506;2024-01-30T12:50:21;23.73;;;13.30;;
29314;SDS011;16320;53.954;9.506;2024-01-30T12:52:50;18.02;;;11.68;;
29314;SDS011;16320;53.954;9.506;2024-01-30T12:55:18;21.70;;;13.18;;
29314;SDS011;16320;53.954;9.506;2024-01-30T12:57:46;18.00;;;12.48;;
29314;SDS011;16320;53.954;9.506;2024-01-30T13:00:14;23.80;;;14.38;;
29314;SDS011;16320;53.954;9.506;2024-01-30T13:02:44;19.38;;;14.35;;
29314;SDS011;16320;53.954;9.506;2024-01-30T13:05:12;22.60;;;13.68;;
29314;SDS011;16320;53.954;9.506;2024-01-30T13:07:41;21.80;;;13.30;;
29314;SDS011;16320;53.954;9.506;2024-01-30T13:10:09;20.98;;;12.60;;
29314;SDS011;16320;53.954;9.506;2024-01-30T13:12:37;22.23;;;13.23;;
29314;SDS011;16320;53.954;9.506;2024-01-30T13:15:05;22.75;;;14.50;;
29314;SDS011;16320;53.954;9.506;2024-01-30T13:17:34;22.00;;;12.75;;
29314;SDS011;16320;53.954;9.506;2024-01-30T13:20:04;21.88;;;13.52;;
29314;SDS011;16320;53.954;9.506;2024-01-30T13:25:06;21.52;;;12.95;;
29314;SDS011;16320;53.954;9.506;2024-01-30T13:27:36;20.55;;;13.35;;
29314;SDS011;16320;53.954;9.506;2024-01-30T13:30:06;21.00;;;13.52;;
29314;SDS011;16320;53.954;9.506;2024-01-30T13:32:36;24.95;;;13.57;;
29314;SDS011;16320;53.954;9.506;2024-01-30T13:35:04;18.88;;;12.43;;
29314;SDS011;16320;53.954;9.506;2024-01-30T13:37:33;19.77;;;13.23;;
29314;SDS011;16320;53.954;9.506;2024-01-30T13:40:05;22.38;;;12.57;;
29314;SDS011;16320;53.954;9.506;2024-01-30T13:42:39;22.88;;;13.68;;
29314;SDS011;16320;53.954;9.506;2024-01-30T13:45:08;23.48;;;13.82;;
29314;SDS011;16320;53.954;9.506;2024-01-30T13:47:37;26.65;;;14.13;;
29314;SDS011;16320;53.954;9.506;2024-01-30T13:50:05;21.45;;;14.32;;
29314;SDS011;16320;53.954;9.506;2024-01-30T13:52:34;22.00;;;13.15;;
29314;SDS011;16320;53.954;9.506;2024-01-30T13:55:10;20.65;;;12.75;;
29314;SDS011;16320;53.954;9.506;2024-01-30T13:57:39;19.30;;;13.32;;
29314;SDS011;16320;53.954;9.506;2024-01-30T14:00:08;19.92;;;13.13;;
29314;SDS011;16320;53.954;9.506;2024-01-30T14:02:42;19.20;;;13.60;;
29314;SDS011;16320;53.954;9.506;2024-01-30T14:05:10;24.35;;;13.07;;
29314;SDS011;16320;53.954;9.506;2024-01-30T14:07:40;23.45;;;13.95;;
29314;SDS011;16320;53.954;9.506;2024-01-30T14:10:10;26.30;;;14.20;;
29314;SDS011;16320;53.954;9.506;2024-01-30T14:12:41;21.98;;;14.15;;
29314;SDS011;16320;53.954;9.506;2024-01-30T14:15:11;21.40;;;12.80;;
29314;SDS011;16320;53.954;9.506;2024-01-30T14:17:54;22.40;;;13.80;;
29314;SDS011;16320;53.954;9.506;2024-01-30T14:20:24;26.42;;;13.82;;
29314;SDS011;16320;53.954;9.506;2024-01-30T14:22:52;18.48;;;13.85;;
29314;SDS011;16320;53.954;9.506;2024-01-30T14:25:22;23.50;;;13.40;;
29314;SDS011;16320;53.954;9.506;2024-01-30T14:27:51;22.48;;;12.55;;
29314;SDS011;16320;53.954;9.506;2024-01-30T14:30:20;24.83;;;13.57;;
29314;SDS011;16320;53.954;9.506;2024-01-30T14:32:48;24.58;;;13.38;;
29314;SDS011;16320;53.954;9.506;2024-01-30T14:35:17;24.20;;;13.68;;
29314;SDS011;16320;53.954;9.506;2024-01-30T14:37:46;20.52;;;13.80;;
29314;SDS011;16320;53.954;9.506;2024-01-30T14:40:14;24.15;;;13.38;;
29314;SDS011;16320;53.954;9.506;2024-01-30T14:42:43;24.30;;;13.27;;
29314;SDS011;16320;53.954;9.506;2024-01-30T14:45:12;21.70;;;14.07;;
29314;SDS011;16320;53.954;9.506;2024-01-30T14:47:40;21.30;;;12.85;;